NZ-0008 weather

Cattle Creek Airstrip
Canterbury Region, New Zealand

Public forecast

Using degrees Celsius for public forecast. Weather courtesy of forecast.io.

Closest aviation weather report (METAR) to Cattle Creek Airstrip

Closest report is Christchurch International Airport, 101.2 nm (187.3 km) NE. Retrieved 2019/12/13 10:30 UTC (0 seconds ago):

NZCH 131030Z AUTO 31007KT 9999 NCD 17/03 Q0998 NOSIG

Closest aviation forecast (TAF) to Cattle Creek Airstrip

Forecast is more than 12 hours old.

Closest forecast is Queenstown International Airport, 87.8 nm (162.6 km) WSW. Retrieved 2019/12/12 17:02 UTC (17 hours ago):

TAF NZQN 121606Z 1217/1311 27010KT 9999 BKN080 FM122100 02008KT 9999 -RA BKN050 FM130000 25012KT 9999 FEW050 BECMG 1308/1310 03005KT